Flugplatz Leutkirch-Unterzeil

Für EDNL sind keine METAR/TAF Berichte vorhanden.
Es werden die Flugwettermeldungen vom Flugplatz Memmingen Allgau in 22 km Entfernung angezeigt.

Bericht für EDJA

vom 15.07. um 18:20 UTC

Wind 6 kt aus 210°

Sichtweite 10 km oder mehr

gering bewölkt in 6100 ft

Temperatur 14.0°C

Taupunkt 13.0°C

Luftfeuchtigkeit 94%

Luftdruck 1017 hPa

EDJA 151820Z 21006KT 9999 FEW061 14/13 Q1017

Prognose für EDJA

vom 15.07. um 17:00 UTC

Zwischen 18:00 UTC und 19:00 UTC

Wind 5 kt aus 280°

Sichtweite 10 km oder mehr

aufgelockert bewölkt in 2500 ft


Zwischen 18:00 UTC und 21:00 UTC zeitweise mit einer Wahrscheinlichkeit von 30%

Regenschauer

aufgebrochene Bewölkung in 2000 ft


Zwischen 19:00 und 21:00 UTC übergehend zu

Wind 5 kt aus 220°

Sichtweite 10 km oder mehr

aufgelockert bewölkt in 2500 ft


Am 16.07. zwischen 01:00 UTC und 03:00 UTC zeitweise

Sichtweite 4500 m

schwacher Regen

schwacher Sprühregen

aufgebrochene Bewölkung in 800 ft

TAF EDJA 151700Z 1518/1603 28005KT 9999 SCT025 PROB30 TEMPO 1518/1521 SHRA BKN020TCU BECMG 1519/1521 22005KT TEMPO 1601/1603 4500 -RADZ BKN008
Impressum